createdAt,value
2023-03-02T00:01:28.841Z,60.00
2023-03-02T00:03:58.973Z,60.10
2023-03-02T00:06:28.799Z,60.00
2023-03-02T00:08:56.706Z,60.00
2023-03-02T00:11:24.725Z,59.90
2023-03-02T00:13:52.612Z,60.00
2023-03-02T00:16:20.611Z,59.90
2023-03-02T00:18:48.469Z,59.90
2023-03-02T00:21:16.740Z,59.80
2023-03-02T00:23:45.988Z,59.80
2023-03-02T00:26:13.878Z,59.80
2023-03-02T00:28:42.439Z,59.70
2023-03-02T00:31:10.321Z,59.70
2023-03-02T00:33:38.184Z,59.70
2023-03-02T00:36:06.697Z,59.60
2023-03-02T00:38:34.620Z,59.70
2023-03-02T00:41:03.876Z,59.70
2023-03-02T00:43:31.832Z,59.70
2023-03-02T00:45:59.961Z,59.60
2023-03-02T00:48:28.859Z,60.10
2023-03-02T00:50:56.832Z,59.70
2023-03-02T00:53:24.729Z,59.60
2023-03-02T00:55:55.391Z,59.60
2023-03-02T00:58:26.691Z,59.60
2023-03-02T01:00:56.093Z,59.60
2023-03-02T01:03:24.183Z,59.50
2023-03-02T01:05:56.290Z,59.40
2023-03-02T01:08:25.155Z,59.40
2023-03-02T01:10:54.293Z,59.30
2023-03-02T01:13:22.357Z,59.30
2023-03-02T01:16:00.270Z,59.20
2023-03-02T01:18:28.204Z,59.30
2023-03-02T01:21:02.723Z,59.20
2023-03-02T01:23:30.611Z,59.30
2023-03-02T01:25:58.530Z,59.30
2023-03-02T01:28:26.484Z,60.20
2023-03-02T01:30:55.735Z,59.20
2023-03-02T01:33:24.326Z,59.10
2023-03-02T01:35:52.324Z,59.00
2023-03-02T01:38:20.299Z,59.00
2023-03-02T01:40:48.180Z,58.90
2023-03-02T01:43:17.057Z,58.90
2023-03-02T01:45:54.020Z,58.90
2023-03-02T01:48:35.273Z,58.90
2023-03-02T01:51:03.380Z,58.80
2023-03-02T01:53:32.431Z,58.70
2023-03-02T01:56:02.099Z,58.80
2023-03-02T01:58:32.224Z,58.60
2023-03-02T02:01:00.161Z,58.60
2023-03-02T02:03:29.773Z,58.50
2023-03-02T02:06:04.705Z,58.50
2023-03-02T02:08:32.643Z,58.40
2023-03-02T02:11:00.672Z,58.30
2023-03-02T02:13:28.581Z,58.30
2023-03-02T02:15:56.492Z,58.20
2023-03-02T02:18:25.112Z,58.20
2023-03-02T02:20:53.625Z,58.20
2023-03-02T02:23:28.318Z,58.20
2023-03-02T02:26:18.513Z,58.10
2023-03-02T02:28:50.710Z,58.10
2023-03-02T02:31:20.897Z,58.20
2023-03-02T02:33:51.928Z,58.10
2023-03-02T02:36:22.654Z,58.10
2023-03-02T02:38:52.639Z,58.00
2023-03-02T02:41:24.826Z,58.00
2023-03-02T02:43:52.838Z,57.80
2023-03-02T02:46:20.846Z,58.70
2023-03-02T02:48:48.733Z,58.70
2023-03-02T02:51:19.075Z,58.50
2023-03-02T02:53:49.357Z,57.40
2023-03-02T02:56:17.264Z,57.40
2023-03-02T02:58:47.856Z,57.30
2023-03-02T03:01:16.402Z,57.20
2023-03-02T03:03:47.077Z,57.30
2023-03-02T03:06:17.827Z,57.10
2023-03-02T03:09:01.750Z,57.10
2023-03-02T03:11:36.657Z,57.20
2023-03-02T03:14:08.608Z,57.00
2023-03-02T03:16:37.111Z,57.10
2023-03-02T03:19:08.061Z,56.90
2023-03-02T03:21:36.378Z,56.90
2023-03-02T03:24:04.302Z,56.80
2023-03-02T03:26:32.767Z,56.90
2023-03-02T03:29:01.134Z,57.20
2023-03-02T03:31:30.489Z,57.00
2023-03-02T03:34:00.565Z,57.30
2023-03-02T03:36:32.390Z,57.30
2023-03-02T03:39:01.551Z,57.20
2023-03-02T03:41:31.054Z,57.10
2023-03-02T03:43:59.348Z,57.10
2023-03-02T03:46:30.688Z,57.10
2023-03-02T03:48:58.715Z,56.80
2023-03-02T03:51:26.745Z,57.20
2023-03-02T03:54:00.747Z,56.90
2023-03-02T03:56:35.146Z,57.20
2023-03-02T03:59:07.283Z,57.10
2023-03-02T04:01:42.213Z,56.90
2023-03-02T04:04:13.380Z,56.90
2023-03-02T04:06:41.646Z,56.60
2023-03-02T04:09:09.830Z,56.60
2023-03-02T04:11:39.132Z,56.40
2023-03-02T04:14:07.582Z,56.40
2023-03-02T04:16:35.777Z,56.20
2023-03-02T04:19:09.477Z,56.10
2023-03-02T04:21:39.540Z,56.30
2023-03-02T04:24:08.091Z,55.90
2023-03-02T04:26:36.132Z,56.10
2023-03-02T04:29:04.367Z,55.80
2023-03-02T04:31:32.753Z,55.90
2023-03-02T04:34:04.090Z,55.90
2023-03-02T04:36:34.840Z,55.80
2023-03-02T04:39:05.314Z,55.60
2023-03-02T04:41:33.269Z,55.50
2023-03-02T04:44:01.182Z,55.60
2023-03-02T04:46:29.150Z,55.30
2023-03-02T04:48:57.105Z,55.20
2023-03-02T04:51:26.080Z,55.50
2023-03-02T04:53:56.248Z,55.40
2023-03-02T04:56:24.176Z,55.40
2023-03-02T04:58:52.077Z,55.10
2023-03-02T05:01:20.142Z,55.30
2023-03-02T05:03:48.193Z,54.90
2023-03-02T05:06:16.177Z,55.00
2023-03-02T05:08:44.159Z,54.80
2023-03-02T05:11:21.952Z,54.90
2023-03-02T05:13:50.222Z,55.00
2023-03-02T05:16:18.285Z,54.80
2023-03-02T05:18:46.274Z,54.80
2023-03-02T05:21:14.438Z,54.80
2023-03-02T05:23:42.449Z,54.80
2023-03-02T05:26:10.396Z,54.90
2023-03-02T05:28:39.616Z,54.30
2023-03-02T05:31:07.681Z,54.40
2023-03-02T05:33:35.901Z,54.30
2023-03-02T05:36:03.893Z,54.20
2023-03-02T05:38:32.474Z,54.30
2023-03-02T05:41:00.337Z,54.10
2023-03-02T05:43:28.187Z,54.10
2023-03-02T05:46:00.449Z,53.90
2023-03-02T05:48:28.368Z,53.80
2023-03-02T05:50:56.258Z,53.70
2023-03-02T05:53:24.145Z,53.60
2023-03-02T05:55:52.115Z,53.50
2023-03-02T05:58:20.336Z,53.60
2023-03-02T06:00:48.613Z,53.40
2023-03-02T06:03:20.706Z,53.30
2023-03-02T06:05:50.982Z,53.30
2023-03-02T06:08:19.032Z,53.30
2023-03-02T06:10:47.019Z,53.70
2023-03-02T06:13:15.738Z,53.50
2023-03-02T06:15:43.872Z,54.10
2023-03-02T06:18:12.589Z,54.30
2023-03-02T06:20:42.230Z,54.50
2023-03-02T06:23:11.301Z,53.80
2023-03-02T06:25:41.314Z,54.00
2023-03-02T06:28:09.425Z,54.00
2023-03-02T06:30:37.282Z,54.30
2023-03-02T06:33:05.155Z,54.30
2023-03-02T06:35:33.591Z,54.40
2023-03-02T06:38:03.002Z,54.40
2023-03-02T06:40:31.299Z,54.70
2023-03-02T06:43:01.676Z,55.10
2023-03-02T06:45:33.594Z,55.00
2023-03-02T06:48:02.045Z,55.30
2023-03-02T06:50:30.073Z,55.00
2023-03-02T06:52:57.972Z,54.80
2023-03-02T06:55:27.199Z,54.50
2023-03-02T06:57:55.157Z,54.50
2023-03-02T07:00:27.900Z,54.70
2023-03-02T07:02:55.976Z,55.00
2023-03-02T07:05:24.489Z,55.30
2023-03-02T07:07:52.558Z,55.40
2023-03-02T07:10:20.627Z,55.40
2023-03-02T07:12:49.902Z,55.30
2023-03-02T07:15:18.243Z,55.10
2023-03-02T07:17:46.195Z,55.20
2023-03-02T07:20:15.576Z,55.20
2023-03-02T07:22:43.691Z,55.20
2023-03-02T07:25:12.026Z,55.10
2023-03-02T07:27:40.072Z,55.10
2023-03-02T07:30:10.709Z,56.00
2023-03-02T07:32:38.641Z,55.00
2023-03-02T07:35:07.113Z,54.90
2023-03-02T07:37:35.174Z,54.90
2023-03-02T07:40:03.828Z,55.00
2023-03-02T07:42:31.697Z,55.10
2023-03-02T07:45:01.992Z,55.10
2023-03-02T07:47:31.219Z,55.00
2023-03-02T07:49:59.099Z,55.00
2023-03-02T07:52:27.027Z,55.00
2023-03-02T07:54:54.970Z,55.00
2023-03-02T07:57:22.839Z,54.90
2023-03-02T07:59:50.894Z,56.00
2023-03-02T08:02:20.254Z,54.80
2023-03-02T08:04:49.555Z,54.80
2023-03-02T08:07:17.813Z,54.70
2023-03-02T08:09:45.817Z,54.70
2023-03-02T08:12:13.738Z,55.00
2023-03-02T08:14:41.611Z,54.90
2023-03-02T08:17:09.514Z,54.80
2023-03-02T08:19:37.397Z,54.70
2023-03-02T08:22:06.625Z,54.80
2023-03-02T08:24:34.511Z,54.80
2023-03-02T08:27:02.649Z,54.80
2023-03-02T08:29:30.575Z,54.80
2023-03-02T08:31:59.645Z,54.80
2023-03-02T08:34:27.685Z,55.20
2023-03-02T08:36:55.575Z,55.40
2023-03-02T08:39:24.876Z,55.20
2023-03-02T08:41:52.839Z,55.30
2023-03-02T08:44:22.080Z,55.50
2023-03-02T08:46:50.008Z,55.50
2023-03-02T08:49:17.872Z,55.60
2023-03-02T08:51:45.852Z,55.60
2023-03-02T08:54:14.011Z,55.70
2023-03-02T08:56:44.419Z,55.80
2023-03-02T08:59:13.314Z,55.60
2023-03-02T09:01:41.692Z,55.70
2023-03-02T09:04:10.449Z,55.60
2023-03-02T09:06:39.355Z,55.60
2023-03-02T09:09:07.459Z,55.70
2023-03-02T09:11:35.682Z,55.70
2023-03-02T09:14:05.188Z,55.70
2023-03-02T09:16:33.146Z,55.80
2023-03-02T09:19:01.106Z,55.80
2023-03-02T09:21:29.062Z,55.80
2023-03-02T09:23:58.333Z,55.80
2023-03-02T09:26:26.427Z,55.90
2023-03-02T09:28:54.343Z,55.90
2023-03-02T09:31:23.723Z,55.80
2023-03-02T09:33:51.775Z,55.80
2023-03-02T09:36:21.825Z,55.60
2023-03-02T09:38:49.791Z,55.60
2023-03-02T09:41:35.925Z,55.70
2023-03-02T09:44:09.653Z,55.60
2023-03-02T09:46:41.240Z,55.70
2023-03-02T09:49:16.608Z,55.40
2023-03-02T09:51:46.983Z,55.50
2023-03-02T09:54:15.928Z,55.30
2023-03-02T09:56:44.853Z,55.10
2023-03-02T09:59:20.987Z,55.10
2023-03-02T10:01:53.209Z,55.00
2023-03-02T10:04:24.198Z,55.00
2023-03-02T10:06:55.863Z,54.80
2023-03-02T10:09:23.715Z,54.70
2023-03-02T10:12:19.717Z,54.60
2023-03-02T10:14:50.473Z,54.60
2023-03-02T10:17:31.109Z,54.60
2023-03-02T10:20:01.500Z,54.70
2023-03-02T10:22:30.927Z,55.20
2023-03-02T10:25:03.584Z,55.90
2023-03-02T10:27:33.432Z,56.30
2023-03-02T10:30:02.420Z,56.30
2023-03-02T10:32:33.892Z,56.40
2023-03-02T10:35:02.507Z,56.60
2023-03-02T10:37:31.459Z,56.50
2023-03-02T10:39:59.344Z,56.70
2023-03-02T10:42:28.424Z,56.70
2023-03-02T10:44:57.320Z,56.60
2023-03-02T10:47:26.301Z,56.70
2023-03-02T10:49:55.902Z,56.90
2023-03-02T10:52:24.582Z,56.90
2023-03-02T10:55:03.013Z,57.00
2023-03-02T10:57:36.044Z,57.00
2023-03-02T11:00:05.270Z,57.00
2023-03-02T11:02:35.072Z,56.90
2023-03-02T11:05:21.713Z,57.10
2023-03-02T11:07:53.758Z,57.40
2023-03-02T11:10:22.723Z,57.10
2023-03-02T11:12:52.014Z,57.20
2023-03-02T11:15:23.538Z,57.20
2023-03-02T11:17:54.695Z,57.10
2023-03-02T11:20:25.887Z,57.00
2023-03-02T11:23:01.694Z,56.80
2023-03-02T11:25:31.657Z,56.80
2023-03-02T11:28:02.282Z,56.70
2023-03-02T11:30:31.410Z,56.70
2023-03-02T11:33:01.139Z,56.50
2023-03-02T11:35:33.625Z,56.80
2023-03-02T11:38:05.360Z,56.70
2023-03-02T11:40:33.992Z,56.60
2023-03-02T11:43:04.760Z,56.50
2023-03-02T11:45:33.728Z,56.50
2023-03-02T11:48:04.532Z,56.50
2023-03-02T11:50:35.225Z,56.60
2023-03-02T11:53:05.457Z,56.60
2023-03-02T11:55:35.036Z,56.50
2023-03-02T11:58:03.906Z,56.50
2023-03-02T12:00:33.273Z,56.40
2023-03-02T12:03:02.510Z,56.60
2023-03-02T12:05:31.374Z,56.60
2023-03-02T12:08:01.453Z,57.60
2023-03-02T12:10:33.692Z,56.40
2023-03-02T12:13:07.825Z,56.50
2023-03-02T12:15:38.389Z,56.50
2023-03-02T12:18:31.344Z,56.50
2023-03-02T12:21:00.945Z,56.20
2023-03-02T12:23:30.381Z,56.10
2023-03-02T12:26:07.135Z,56.10
2023-03-02T12:28:36.252Z,56.10
2023-03-02T12:31:06.356Z,56.00
2023-03-02T12:33:34.490Z,56.10
2023-03-02T12:36:06.167Z,56.10
2023-03-02T12:38:37.108Z,56.60
2023-03-02T12:41:35.591Z,56.90
2023-03-02T12:44:15.869Z,56.70
2023-03-02T12:46:45.730Z,56.60
2023-03-02T12:49:23.169Z,56.40
2023-03-02T12:51:55.552Z,56.20
2023-03-02T12:54:25.746Z,56.30
2023-03-02T12:57:03.900Z,56.40
2023-03-02T12:59:31.780Z,56.30
2023-03-02T13:02:11.695Z,56.30
2023-03-02T13:04:39.644Z,56.30
2023-03-02T13:07:07.632Z,56.10
2023-03-02T13:09:40.144Z,56.00
2023-03-02T13:12:14.149Z,55.90
2023-03-02T13:14:42.238Z,55.80
2023-03-02T13:17:24.827Z,55.70
2023-03-02T13:19:52.699Z,55.80
2023-03-02T13:22:20.814Z,55.60
2023-03-02T13:24:52.760Z,55.50
2023-03-02T13:27:21.717Z,55.50
2023-03-02T13:29:49.809Z,55.40
2023-03-02T13:32:19.173Z,55.30
2023-03-02T13:34:49.480Z,55.30
2023-03-02T13:37:20.902Z,55.20
2023-03-02T13:39:57.290Z,55.10
2023-03-02T13:42:27.467Z,55.20
2023-03-02T13:44:55.414Z,55.10
2023-03-02T13:47:24.178Z,55.10
2023-03-02T13:49:52.048Z,55.10
2023-03-02T13:52:23.855Z,55.00
2023-03-02T13:54:51.705Z,55.00
2023-03-02T13:57:24.957Z,55.10
2023-03-02T13:59:52.863Z,54.90
2023-03-02T14:02:24.722Z,54.90
2023-03-02T14:04:52.839Z,54.90
2023-03-02T14:07:20.833Z,54.80
2023-03-02T14:09:48.767Z,54.80
2023-03-02T14:12:23.844Z,54.70
2023-03-02T14:14:51.795Z,54.70
2023-03-02T14:17:22.713Z,54.60
2023-03-02T14:19:52.839Z,54.70
2023-03-02T14:22:20.779Z,54.60
2023-03-02T14:24:48.708Z,54.60
2023-03-02T14:27:16.926Z,54.80
2023-03-02T14:29:46.676Z,55.00
2023-03-02T14:32:15.477Z,55.10
2023-03-02T14:34:44.137Z,55.00
2023-03-02T14:37:13.656Z,55.10
2023-03-02T14:39:42.366Z,54.90
2023-03-02T14:42:16.879Z,55.20
2023-03-02T14:44:46.784Z,55.30
2023-03-02T14:47:16.631Z,55.20
2023-03-02T14:49:44.555Z,55.40
2023-03-02T14:52:14.478Z,55.40
2023-03-02T14:54:43.737Z,55.40
2023-03-02T14:57:16.353Z,55.60
2023-03-02T14:59:44.252Z,55.80
2023-03-02T15:02:24.832Z,55.80
2023-03-02T15:04:56.012Z,56.00
2023-03-02T15:07:24.416Z,56.10
2023-03-02T15:09:52.299Z,56.20
2023-03-02T15:12:20.182Z,56.30
2023-03-02T15:14:48.058Z,56.40
2023-03-02T15:17:17.304Z,56.50
2023-03-02T15:19:45.182Z,56.50
2023-03-02T15:22:13.468Z,56.60
2023-03-02T15:24:41.403Z,56.70
2023-03-02T15:27:09.288Z,56.60
2023-03-02T15:29:37.163Z,56.60
2023-03-02T15:32:05.452Z,56.50
2023-03-02T15:34:34.721Z,56.60
2023-03-02T15:37:02.655Z,56.60
2023-03-02T15:39:30.674Z,56.60
2023-03-02T15:41:58.551Z,56.70
2023-03-02T15:44:26.450Z,56.80
2023-03-02T15:46:55.204Z,56.90
2023-03-02T15:49:24.839Z,57.00
2023-03-02T15:51:54.577Z,57.10
2023-03-02T15:54:22.555Z,57.00
2023-03-02T15:56:52.088Z,57.00
2023-03-02T15:59:20.090Z,57.00
2023-03-02T16:01:48.012Z,56.90
2023-03-02T16:04:15.948Z,56.70
2023-03-02T16:06:43.900Z,56.70
2023-03-02T16:09:13.210Z,56.60
2023-03-02T16:11:41.286Z,56.50
2023-03-02T16:14:09.176Z,56.50
2023-03-02T16:16:37.119Z,56.40
2023-03-02T16:19:05.037Z,56.30
2023-03-02T16:21:32.945Z,56.40
2023-03-02T16:24:03.911Z,56.60
2023-03-02T16:26:33.719Z,56.90
2023-03-02T16:29:01.682Z,56.80
2023-03-02T16:31:32.297Z,56.90
2023-03-02T16:34:03.744Z,56.90
2023-03-02T16:36:31.642Z,57.20
2023-03-02T16:38:59.534Z,57.40
2023-03-02T16:41:27.502Z,57.40
2023-03-02T16:43:57.554Z,57.40
2023-03-02T16:46:26.101Z,57.50
2023-03-02T16:48:54.034Z,57.70
2023-03-02T16:51:22.156Z,57.70
2023-03-02T16:53:50.087Z,57.80
2023-03-02T16:56:18.034Z,57.90
2023-03-02T16:58:45.934Z,58.10
2023-03-02T17:01:16.051Z,58.10
2023-03-02T17:03:44.012Z,58.30
2023-03-02T17:06:12.502Z,58.60
2023-03-02T17:08:40.447Z,58.80
2023-03-02T17:11:08.502Z,58.90
2023-03-02T17:13:36.368Z,59.10
2023-03-02T17:16:04.567Z,59.30
2023-03-02T17:18:33.881Z,59.30
2023-03-02T17:21:01.861Z,59.40
2023-03-02T17:23:31.174Z,60.50
2023-03-02T17:25:59.235Z,59.40
2023-03-02T17:28:27.144Z,59.30
2023-03-02T17:30:55.135Z,59.20
2023-03-02T17:33:23.075Z,59.20
2023-03-02T17:35:52.554Z,58.90
2023-03-02T17:38:20.468Z,58.70
2023-03-02T17:40:48.342Z,58.50
2023-03-02T17:43:16.266Z,58.30
2023-03-02T17:45:44.171Z,58.20
2023-03-02T17:48:12.070Z,58.00
2023-03-02T17:50:40.035Z,57.90
2023-03-02T17:53:09.250Z,57.80
2023-03-02T17:55:39.051Z,57.80
2023-03-02T17:58:06.915Z,57.80
2023-03-02T18:00:34.845Z,57.60
2023-03-02T18:03:02.826Z,57.80
2023-03-02T18:05:30.734Z,57.70
2023-03-02T18:07:58.598Z,57.80
2023-03-02T18:10:27.861Z,57.70
2023-03-02T18:12:56.765Z,57.70
2023-03-02T18:15:27.048Z,57.70
2023-03-02T18:17:54.928Z,57.70
2023-03-02T18:20:22.833Z,57.80
2023-03-02T18:22:50.689Z,57.80
2023-03-02T18:25:18.605Z,57.80
2023-03-02T18:27:47.922Z,57.80
2023-03-02T18:30:17.864Z,57.80
2023-03-02T18:32:45.723Z,57.80
2023-03-02T18:35:13.646Z,57.80
2023-03-02T18:37:41.668Z,57.80
2023-03-02T18:40:11.612Z,57.80
2023-03-02T18:42:39.505Z,57.80
2023-03-02T18:45:10.492Z,57.80
2023-03-02T18:47:38.429Z,57.90
2023-03-02T18:50:07.409Z,57.80
2023-03-02T18:52:35.344Z,57.80
2023-03-02T18:55:04.463Z,57.80
2023-03-02T18:57:34.004Z,57.80
2023-03-02T19:00:01.964Z,57.90
2023-03-02T19:02:32.005Z,57.80
2023-03-02T19:04:59.900Z,58.00
2023-03-02T19:07:27.962Z,58.00
2023-03-02T19:09:55.875Z,58.00
2023-03-02T19:12:23.809Z,57.70
2023-03-02T19:14:51.728Z,57.70
2023-03-02T19:17:19.636Z,57.80
2023-03-02T19:19:48.928Z,57.90
2023-03-02T19:22:17.344Z,57.80
2023-03-02T19:24:45.817Z,57.90
2023-03-02T19:27:13.868Z,57.70
2023-03-02T19:29:41.806Z,57.60
2023-03-02T19:32:11.431Z,57.70
2023-03-02T19:34:39.447Z,57.80
2023-03-02T19:37:08.848Z,57.70
2023-03-02T19:39:36.813Z,57.80
2023-03-02T19:42:04.822Z,57.70
2023-03-02T19:44:33.059Z,57.70
2023-03-02T19:47:00.933Z,57.60
2023-03-02T19:49:28.988Z,57.40
2023-03-02T19:51:56.987Z,57.70
2023-03-02T19:54:26.353Z,58.80
2023-03-02T19:56:54.478Z,59.80
2023-03-02T19:59:22.564Z,60.60
2023-03-02T20:01:51.445Z,61.40
2023-03-02T20:04:19.555Z,62.20
2023-03-02T20:06:47.712Z,62.00
2023-03-02T20:09:19.645Z,62.00
2023-03-02T20:11:49.189Z,62.50
2023-03-02T20:14:32.884Z,62.60
2023-03-02T20:17:01.246Z,63.00
2023-03-02T20:19:29.168Z,63.40
2023-03-02T20:21:57.142Z,63.80
2023-03-02T20:24:25.036Z,63.60
2023-03-02T20:26:54.326Z,63.50
2023-03-02T20:29:22.408Z,63.40
2023-03-02T20:31:50.738Z,63.20
2023-03-02T20:34:18.828Z,63.20
2023-03-02T20:36:47.192Z,63.40
2023-03-02T20:39:16.624Z,63.50
2023-03-02T20:41:44.629Z,63.60
2023-03-02T20:44:14.897Z,63.90
2023-03-02T20:46:44.898Z,63.70
2023-03-02T20:49:15.276Z,64.00
2023-03-02T20:51:45.261Z,64.10
2023-03-02T20:54:13.254Z,64.30
2023-03-02T20:56:41.351Z,64.30
2023-03-02T20:59:09.505Z,64.20
2023-03-02T21:01:38.736Z,64.40
2023-03-02T21:04:06.797Z,64.50
2023-03-02T21:06:34.768Z,64.40
2023-03-02T21:09:02.963Z,64.30
2023-03-02T21:11:31.258Z,64.10
2023-03-02T21:13:59.293Z,63.90
2023-03-02T21:16:28.874Z,64.00
2023-03-02T21:18:58.117Z,63.90
2023-03-02T21:21:40.442Z,63.60
2023-03-02T21:24:09.234Z,63.80
2023-03-02T21:26:37.546Z,64.20
2023-03-02T21:29:05.668Z,64.30
2023-03-02T21:31:33.632Z,64.30
2023-03-02T21:34:02.916Z,63.90
2023-03-02T21:36:30.903Z,63.80
2023-03-02T21:38:58.842Z,63.70
2023-03-02T21:41:26.716Z,63.30
2023-03-02T21:43:54.638Z,63.30
2023-03-02T21:46:23.429Z,63.60
2023-03-02T21:48:51.586Z,63.90
2023-03-02T21:51:20.852Z,64.20
2023-03-02T21:53:48.728Z,64.00
2023-03-02T21:56:20.744Z,63.80
2023-03-02T21:58:49.199Z,63.70
2023-03-02T22:01:17.272Z,64.40
2023-03-02T22:03:45.570Z,63.40
2023-03-02T22:06:17.142Z,63.40
2023-03-02T22:08:46.497Z,63.20
2023-03-02T22:11:16.074Z,63.00
2023-03-02T22:13:43.993Z,62.90
2023-03-02T22:16:14.032Z,62.80
2023-03-02T22:18:42.136Z,62.60
2023-03-02T22:21:30.949Z,62.50
2023-03-02T22:24:15.783Z,62.30
2023-03-02T22:26:44.571Z,62.20
2023-03-02T22:29:15.310Z,62.10
2023-03-02T22:31:45.885Z,61.90
2023-03-02T22:34:15.233Z,61.80
2023-03-02T22:36:43.207Z,61.70
2023-03-02T22:39:21.243Z,61.50
2023-03-02T22:41:49.159Z,61.30
2023-03-02T22:44:17.043Z,61.30
2023-03-02T22:46:45.274Z,61.20
2023-03-02T22:49:16.298Z,61.00
2023-03-02T22:51:44.517Z,61.00
2023-03-02T22:54:17.575Z,60.80
2023-03-02T22:56:47.398Z,60.60
2023-03-02T22:59:18.126Z,60.50
2023-03-02T23:01:46.522Z,60.40
2023-03-02T23:04:17.717Z,60.30
2023-03-02T23:06:46.448Z,60.20
2023-03-02T23:09:17.325Z,60.10
2023-03-02T23:11:45.524Z,60.00
2023-03-02T23:14:20.026Z,59.80
2023-03-02T23:16:49.269Z,59.70
2023-03-02T23:19:17.199Z,59.70
2023-03-02T23:21:46.594Z,59.60
2023-03-02T23:24:17.706Z,59.50
2023-03-02T23:26:45.730Z,59.50
2023-03-02T23:29:13.608Z,59.30
2023-03-02T23:31:41.466Z,59.20
2023-03-02T23:34:09.346Z,59.00
2023-03-02T23:36:37.556Z,59.00
2023-03-02T23:39:05.784Z,58.90
2023-03-02T23:41:35.136Z,58.80
2023-03-02T23:44:03.071Z,58.70
2023-03-02T23:46:30.957Z,58.70
2023-03-02T23:48:58.935Z,58.50
2023-03-02T23:51:27.070Z,58.40
2023-03-02T23:53:55.134Z,58.40
2023-03-02T23:56:23.362Z,58.30
2023-03-02T23:58:52.564Z,58.20
